createdAt,value
2022-11-30T00:01:46.677Z,5.59
2022-11-30T00:04:15.911Z,5.62
2022-11-30T00:06:45.200Z,5.63
2022-11-30T00:09:15.122Z,5.65
2022-11-30T00:11:44.532Z,5.68
2022-11-30T00:14:13.760Z,5.65
2022-11-30T00:16:43.220Z,5.63
2022-11-30T00:19:12.618Z,5.66
2022-11-30T00:21:41.911Z,5.62
2022-11-30T00:24:11.291Z,5.59
2022-11-30T00:26:40.529Z,5.55
2022-11-30T00:29:09.952Z,5.55
2022-11-30T00:31:39.482Z,5.59
2022-11-30T00:34:08.894Z,5.56
2022-11-30T00:36:39.491Z,5.60
2022-11-30T00:39:08.797Z,5.59
2022-11-30T00:41:38.053Z,5.56
2022-11-30T00:44:07.464Z,5.59
2022-11-30T00:46:37.082Z,5.63
2022-11-30T00:49:06.618Z,5.58
2022-11-30T00:51:36.082Z,5.59
2022-11-30T00:54:05.504Z,5.61
2022-11-30T00:56:34.850Z,5.66
2022-11-30T00:59:04.218Z,5.67
2022-11-30T01:01:33.482Z,5.75
2022-11-30T01:04:03.219Z,5.72
2022-11-30T01:06:32.622Z,5.68
2022-11-30T01:09:02.986Z,5.72
2022-11-30T01:11:32.742Z,5.72
2022-11-30T01:14:02.512Z,5.73
2022-11-30T01:16:33.694Z,5.78
2022-11-30T01:19:03.746Z,5.74
2022-11-30T01:21:33.310Z,5.76
2022-11-30T01:24:02.578Z,5.74
2022-11-30T01:26:31.880Z,5.76
2022-11-30T01:29:01.375Z,5.77
2022-11-30T01:31:30.746Z,5.81
2022-11-30T01:34:01.509Z,5.78
2022-11-30T01:36:30.754Z,5.91
2022-11-30T01:38:59.984Z,5.83
2022-11-30T01:41:31.373Z,5.83
2022-11-30T01:44:10.412Z,5.84
2022-11-30T01:46:57.682Z,5.82
2022-11-30T01:49:35.508Z,5.84
2022-11-30T01:52:08.154Z,5.81
2022-11-30T01:54:38.276Z,5.81
2022-11-30T01:57:21.152Z,5.81
2022-11-30T01:59:52.679Z,5.80
2022-11-30T02:02:25.121Z,5.86
2022-11-30T02:04:54.421Z,5.81
2022-11-30T02:07:23.764Z,5.79
2022-11-30T02:09:53.084Z,5.76
2022-11-30T02:12:25.607Z,5.72
2022-11-30T02:14:56.720Z,5.69
2022-11-30T02:17:29.231Z,5.64
2022-11-30T02:20:01.720Z,5.55
2022-11-30T02:22:48.345Z,5.50
2022-11-30T02:25:43.665Z,5.37
2022-11-30T02:28:32.475Z,5.27
2022-11-30T02:31:03.972Z,5.20
2022-11-30T02:33:33.586Z,5.13
2022-11-30T02:36:04.456Z,5.14
2022-11-30T02:38:33.902Z,5.08
2022-11-30T02:41:03.926Z,5.15
2022-11-30T02:43:33.714Z,5.22
2022-11-30T02:46:11.782Z,5.25
2022-11-30T02:48:56.525Z,5.27
2022-11-30T02:51:27.666Z,5.28
2022-11-30T02:53:57.324Z,5.29
2022-11-30T02:56:27.474Z,5.34
2022-11-30T02:58:56.929Z,5.33
2022-11-30T03:01:27.273Z,5.40
2022-11-30T03:03:56.624Z,5.40
2022-11-30T03:06:25.835Z,5.39
2022-11-30T03:08:55.079Z,5.39
2022-11-30T03:11:25.649Z,5.40
2022-11-30T03:13:55.747Z,5.43
2022-11-30T03:16:24.946Z,5.44
2022-11-30T03:18:54.565Z,5.49
2022-11-30T03:21:23.785Z,5.44
2022-11-30T03:23:53.576Z,5.40
2022-11-30T03:26:22.961Z,5.40
2022-11-30T03:28:52.341Z,5.40
2022-11-30T03:31:21.871Z,5.38
2022-11-30T03:33:51.347Z,5.40
2022-11-30T03:36:20.575Z,5.39
2022-11-30T03:38:49.940Z,5.37
2022-11-30T03:41:19.471Z,5.34
2022-11-30T03:43:48.724Z,5.31
2022-11-30T03:46:18.542Z,5.33
2022-11-30T03:48:47.972Z,5.35
2022-11-30T03:51:17.206Z,5.38
2022-11-30T03:53:46.633Z,5.43
2022-11-30T03:56:16.786Z,5.43
2022-11-30T03:58:46.030Z,5.43
2022-11-30T04:01:17.782Z,5.47
2022-11-30T04:03:47.015Z,5.44
2022-11-30T04:06:16.483Z,5.45
2022-11-30T04:08:45.939Z,5.43
2022-11-30T04:11:15.785Z,5.43
2022-11-30T04:13:45.105Z,5.41
2022-11-30T04:16:14.651Z,5.41
2022-11-30T04:18:43.929Z,5.41
2022-11-30T04:21:13.329Z,5.39
2022-11-30T04:23:42.578Z,5.38
2022-11-30T04:26:14.094Z,5.32
2022-11-30T04:28:44.195Z,5.17
2022-11-30T04:31:14.021Z,5.06
2022-11-30T04:33:43.272Z,5.02
2022-11-30T04:36:20.315Z,5.01
2022-11-30T04:38:49.700Z,4.94
2022-11-30T04:41:18.908Z,4.90
2022-11-30T04:43:48.478Z,4.90
2022-11-30T04:46:17.714Z,4.82
2022-11-30T04:48:47.158Z,4.79
2022-11-30T04:51:16.363Z,4.80
2022-11-30T04:53:45.679Z,4.86
2022-11-30T04:56:14.888Z,4.84
2022-11-30T04:58:44.171Z,4.83
2022-11-30T05:01:13.591Z,4.85
2022-11-30T05:03:42.820Z,4.87
2022-11-30T05:06:12.079Z,4.84
2022-11-30T05:08:41.456Z,4.80
2022-11-30T05:11:10.701Z,4.84
2022-11-30T05:13:39.911Z,4.84
2022-11-30T05:16:10.857Z,4.79
2022-11-30T05:18:40.114Z,4.85
2022-11-30T05:21:09.485Z,4.78
2022-11-30T05:23:38.743Z,4.84
2022-11-30T05:26:07.995Z,4.77
2022-11-30T05:28:37.450Z,4.76
2022-11-30T05:31:07.131Z,4.71
2022-11-30T05:33:36.322Z,4.69
2022-11-30T05:36:10.446Z,4.69
2022-11-30T05:38:36.746Z,4.68
2022-11-30T05:41:06.144Z,4.68
2022-11-30T05:43:35.406Z,4.62
2022-11-30T05:46:06.400Z,4.62
2022-11-30T05:48:35.942Z,4.61
2022-11-30T05:51:10.376Z,4.65
2022-11-30T05:53:40.176Z,4.67
2022-11-30T05:56:12.044Z,4.60
2022-11-30T05:58:41.506Z,4.55
2022-11-30T06:01:19.147Z,4.53
2022-11-30T06:03:48.520Z,4.55
2022-11-30T06:06:18.309Z,4.53
2022-11-30T06:08:48.528Z,4.57
2022-11-30T06:11:18.428Z,4.47
2022-11-30T06:13:47.687Z,4.48
2022-11-30T06:16:17.045Z,4.50
2022-11-30T06:18:46.298Z,4.45
2022-11-30T06:21:19.602Z,4.54
2022-11-30T06:23:46.607Z,4.52
2022-11-30T06:26:15.841Z,4.48
2022-11-30T06:28:48.197Z,4.50
2022-11-30T06:31:16.246Z,4.53
2022-11-30T06:33:45.631Z,4.59
2022-11-30T06:36:14.887Z,4.65
2022-11-30T06:38:44.141Z,4.61
2022-11-30T06:41:13.393Z,4.60
2022-11-30T06:43:42.796Z,4.59
2022-11-30T06:46:12.071Z,4.65
2022-11-30T06:48:41.795Z,4.63
2022-11-30T06:51:11.810Z,4.60
2022-11-30T06:53:42.714Z,4.55
2022-11-30T06:56:12.093Z,4.52
2022-11-30T06:58:42.195Z,4.52
2022-11-30T07:01:14.526Z,4.57
2022-11-30T07:03:43.993Z,4.55
2022-11-30T07:06:14.868Z,4.58
2022-11-30T07:08:44.880Z,4.60
2022-11-30T07:11:14.408Z,4.60
2022-11-30T07:13:43.919Z,4.65
2022-11-30T07:16:14.467Z,4.62
2022-11-30T07:18:43.836Z,4.63
2022-11-30T07:21:13.104Z,4.65
2022-11-30T07:24:00.442Z,4.64
2022-11-30T07:26:29.691Z,4.66
2022-11-30T07:28:59.107Z,4.63
2022-11-30T07:31:34.999Z,4.60
2022-11-30T07:34:09.450Z,4.62
2022-11-30T07:36:38.886Z,4.64
2022-11-30T07:39:08.407Z,4.67
2022-11-30T07:41:37.756Z,4.66
2022-11-30T07:44:08.032Z,4.66
2022-11-30T07:46:38.369Z,4.68
2022-11-30T07:49:08.747Z,4.71
2022-11-30T07:51:38.447Z,4.75
2022-11-30T07:54:07.665Z,4.73
2022-11-30T07:56:37.144Z,4.69
2022-11-30T07:59:06.431Z,4.73
2022-11-30T08:01:36.251Z,4.76
2022-11-30T08:04:05.913Z,4.78
2022-11-30T08:06:35.379Z,4.81
2022-11-30T08:09:05.486Z,4.74
2022-11-30T08:11:36.329Z,4.75
2022-11-30T08:14:05.872Z,4.74
2022-11-30T08:16:39.138Z,4.73
2022-11-30T08:19:08.509Z,4.75
2022-11-30T08:21:38.220Z,4.84
2022-11-30T08:24:07.936Z,4.81
2022-11-30T08:26:37.201Z,4.83
2022-11-30T08:29:06.559Z,4.90
2022-11-30T08:31:38.002Z,4.98
2022-11-30T08:34:10.316Z,4.93
2022-11-30T08:36:40.269Z,4.87
2022-11-30T08:39:12.316Z,4.94
2022-11-30T08:41:41.538Z,4.93
2022-11-30T08:44:11.166Z,5.04
2022-11-30T08:46:51.552Z,5.11
2022-11-30T08:49:27.062Z,5.05
2022-11-30T08:52:15.548Z,5.09
2022-11-30T08:54:13.643Z,5.08
2022-11-30T08:56:42.862Z,5.05
2022-11-30T08:59:12.460Z,5.09
2022-11-30T09:01:42.625Z,5.19
2022-11-30T09:04:12.034Z,5.24
2022-11-30T09:06:41.800Z,5.31
2022-11-30T09:09:11.174Z,5.29
2022-11-30T09:11:40.457Z,5.28
2022-11-30T09:14:10.974Z,5.26
2022-11-30T09:16:40.675Z,5.26
2022-11-30T09:19:11.365Z,5.32
2022-11-30T09:21:40.820Z,5.38
2022-11-30T09:24:10.397Z,5.36
2022-11-30T09:26:39.847Z,5.45
2022-11-30T09:29:09.225Z,5.46
2022-11-30T09:31:38.554Z,5.53
2022-11-30T09:34:07.989Z,5.57
2022-11-30T09:36:37.244Z,5.73
2022-11-30T09:39:06.736Z,5.85
2022-11-30T09:41:41.827Z,5.89
2022-11-30T09:44:14.199Z,6.04
2022-11-30T09:46:46.735Z,6.14
2022-11-30T09:49:22.058Z,6.06
2022-11-30T09:51:55.085Z,6.15
2022-11-30T09:54:38.856Z,6.36
2022-11-30T09:57:33.674Z,6.29
2022-11-30T10:00:09.011Z,6.16
2022-11-30T10:02:40.177Z,6.06
2022-11-30T10:05:18.206Z,6.03
2022-11-30T10:08:07.165Z,6.01
2022-11-30T10:11:02.170Z,6.09
2022-11-30T10:13:34.563Z,6.17
2022-11-30T10:16:26.635Z,6.21
2022-11-30T10:19:11.112Z,6.25
2022-11-30T10:21:46.720Z,6.36
2022-11-30T10:24:40.284Z,6.26
2022-11-30T10:27:32.673Z,6.34
2022-11-30T10:30:03.058Z,6.37
2022-11-30T10:32:35.577Z,6.33
2022-11-30T10:35:32.948Z,6.35
2022-11-30T10:38:05.009Z,6.31
2022-11-30T10:40:48.748Z,6.25
2022-11-30T10:43:30.119Z,6.48
2022-11-30T10:45:59.386Z,7.00
2022-11-30T10:48:40.876Z,7.90
2022-11-30T10:51:11.692Z,7.97
2022-11-30T10:53:41.166Z,8.39
2022-11-30T10:56:12.681Z,8.38
2022-11-30T10:58:56.886Z,8.68
2022-11-30T11:01:34.743Z,8.88
2022-11-30T11:04:18.709Z,8.87
2022-11-30T11:07:07.620Z,8.63
2022-11-30T11:09:42.797Z,8.59
2022-11-30T11:12:24.538Z,8.74
2022-11-30T11:15:11.072Z,9.04
2022-11-30T11:17:40.740Z,8.75
2022-11-30T11:20:36.630Z,9.05
2022-11-30T11:23:06.079Z,8.91
2022-11-30T11:25:37.494Z,9.02
2022-11-30T11:28:10.080Z,8.88
2022-11-30T11:30:39.612Z,8.87
2022-11-30T11:33:19.082Z,9.08
2022-11-30T11:35:53.471Z,9.00
2022-11-30T11:38:37.852Z,9.22
2022-11-30T11:41:19.813Z,8.81
2022-11-30T11:44:13.272Z,8.27
2022-11-30T11:47:03.645Z,8.18
2022-11-30T11:49:36.091Z,7.93
2022-11-30T11:52:11.380Z,8.04
2022-11-30T11:55:02.275Z,8.13
2022-11-30T11:57:46.880Z,8.27
2022-11-30T12:00:18.916Z,8.04
2022-11-30T12:03:03.731Z,7.90
2022-11-30T12:05:49.414Z,7.98
2022-11-30T12:08:49.272Z,8.02
2022-11-30T12:11:24.564Z,8.06
2022-11-30T12:13:53.823Z,8.20
2022-11-30T12:16:42.833Z,7.86
2022-11-30T12:19:17.677Z,7.68
2022-11-30T12:21:58.812Z,7.53
2022-11-30T12:24:48.125Z,7.74
2022-11-30T12:27:53.662Z,7.91
2022-11-30T12:30:24.980Z,8.12
2022-11-30T12:33:15.666Z,8.28
2022-11-30T12:36:17.119Z,8.38
2022-11-30T12:38:52.336Z,8.45
2022-11-30T12:41:51.328Z,8.54
2022-11-30T12:44:30.304Z,8.48
2022-11-30T12:47:21.318Z,8.73
2022-11-30T12:50:05.689Z,8.75
2022-11-30T12:52:57.338Z,8.78
2022-11-30T12:55:35.765Z,8.50
2022-11-30T12:58:11.389Z,8.46
2022-11-30T13:01:00.025Z,8.37
2022-11-30T13:03:35.497Z,8.17
2022-11-30T13:06:13.700Z,8.13
2022-11-30T13:08:55.122Z,8.09
2022-11-30T13:11:38.997Z,7.93
2022-11-30T13:14:17.188Z,7.67
2022-11-30T13:16:48.056Z,7.69
2022-11-30T13:19:49.276Z,7.59
2022-11-30T13:22:21.939Z,7.70
2022-11-30T13:24:57.960Z,7.73
2022-11-30T13:27:45.736Z,7.72
2022-11-30T13:30:23.755Z,7.77
2022-11-30T13:32:58.238Z,7.72
2022-11-30T13:35:33.476Z,7.66
2022-11-30T13:38:35.121Z,7.70
2022-11-30T13:40:39.494Z,7.69
2022-11-30T13:43:18.010Z,7.57
2022-11-30T13:45:47.651Z,7.63
2022-11-30T13:48:40.578Z,7.65
2022-11-30T13:51:11.574Z,7.65
2022-11-30T13:53:41.504Z,7.67
2022-11-30T13:56:20.141Z,7.57
2022-11-30T13:59:24.472Z,7.64
2022-11-30T14:01:56.612Z,7.64
2022-11-30T14:04:31.707Z,7.55
2022-11-30T14:07:01.100Z,7.42
2022-11-30T14:09:46.074Z,7.37
2022-11-30T14:12:40.123Z,7.42
2022-11-30T14:15:33.238Z,7.43
2022-11-30T14:18:05.801Z,7.43
2022-11-30T14:20:37.942Z,7.36
2022-11-30T14:23:08.642Z,7.33
2022-11-30T14:25:38.130Z,7.36
2022-11-30T14:28:09.896Z,7.29
2022-11-30T14:30:41.048Z,7.17
2022-11-30T14:33:19.762Z,7.09
2022-11-30T14:35:51.417Z,7.10
2022-11-30T14:38:26.244Z,7.06
2022-11-30T14:40:55.744Z,7.05
2022-11-30T14:43:26.458Z,7.00
2022-11-30T14:46:05.114Z,6.97
2022-11-30T14:48:32.715Z,6.93
2022-11-30T14:51:04.014Z,6.86
2022-11-30T14:53:44.900Z,6.85
2022-11-30T14:56:32.061Z,6.82
2022-11-30T14:59:28.717Z,6.76
2022-11-30T15:02:02.907Z,6.66
2022-11-30T15:04:32.740Z,6.62
2022-11-30T15:07:02.255Z,6.56
2022-11-30T15:09:33.243Z,6.51
2022-11-30T15:12:02.681Z,6.47
2022-11-30T15:14:32.332Z,6.46
2022-11-30T15:17:01.738Z,6.40
2022-11-30T15:19:33.213Z,6.40
2022-11-30T15:22:02.728Z,6.38
2022-11-30T15:24:31.918Z,6.35
2022-11-30T15:27:11.358Z,6.30
2022-11-30T15:29:43.874Z,6.27
2022-11-30T15:32:21.123Z,6.24
2022-11-30T15:34:56.540Z,6.15
2022-11-30T15:37:29.726Z,6.14
2022-11-30T15:40:00.814Z,6.09
2022-11-30T15:42:41.035Z,6.03
2022-11-30T15:45:19.025Z,6.00
2022-11-30T15:47:48.718Z,5.95
2022-11-30T15:50:32.567Z,5.90
2022-11-30T15:53:04.482Z,5.84
2022-11-30T15:55:43.953Z,5.86
2022-11-30T15:58:28.589Z,5.81
2022-11-30T16:01:10.468Z,5.83
2022-11-30T16:04:00.883Z,5.82
2022-11-30T16:06:33.468Z,5.72
2022-11-30T16:09:03.688Z,5.67
2022-11-30T16:11:35.009Z,5.57
2022-11-30T16:14:04.459Z,5.44
2022-11-30T16:16:34.112Z,5.38
2022-11-30T16:19:03.564Z,5.29
2022-11-30T16:21:32.921Z,5.22
2022-11-30T16:24:02.443Z,5.17
2022-11-30T16:29:04.517Z,5.08
2022-11-30T16:31:34.114Z,4.99
2022-11-30T16:34:04.161Z,4.89
2022-11-30T16:36:33.666Z,4.82
2022-11-30T16:39:02.999Z,4.76
2022-11-30T16:41:32.435Z,4.65
2022-11-30T16:44:01.881Z,4.61
2022-11-30T16:46:32.016Z,4.52
2022-11-30T16:49:01.377Z,4.40
2022-11-30T16:51:34.775Z,4.31
2022-11-30T16:54:04.875Z,4.26
2022-11-30T16:56:34.172Z,4.15
2022-11-30T16:59:03.659Z,4.06
2022-11-30T17:01:37.901Z,3.96
2022-11-30T17:04:13.441Z,3.90
2022-11-30T17:06:45.746Z,3.88
2022-11-30T17:09:16.533Z,3.76
2022-11-30T17:11:46.851Z,3.70
2022-11-30T17:14:16.199Z,3.71
2022-11-30T17:16:45.656Z,3.72
2022-11-30T17:19:14.947Z,3.77
2022-11-30T17:21:44.918Z,3.74
2022-11-30T17:24:14.653Z,3.58
2022-11-30T17:26:44.059Z,3.46
2022-11-30T17:29:13.401Z,3.54
2022-11-30T17:31:42.663Z,3.41
2022-11-30T17:34:12.538Z,3.34
2022-11-30T17:36:41.943Z,3.28
2022-11-30T17:39:11.353Z,3.24
2022-11-30T17:41:40.707Z,3.16
2022-11-30T17:44:11.572Z,3.12
2022-11-30T17:46:45.350Z,3.08
2022-11-30T17:49:12.133Z,3.11
2022-11-30T17:51:41.785Z,3.07
2022-11-30T17:54:12.380Z,2.95
2022-11-30T17:56:43.447Z,2.90
2022-11-30T17:59:12.970Z,2.98
2022-11-30T18:01:42.441Z,3.04
2022-11-30T18:04:11.827Z,3.04
2022-11-30T18:06:41.405Z,2.97
2022-11-30T18:09:11.155Z,2.96
2022-11-30T18:11:40.645Z,3.04
2022-11-30T18:14:10.198Z,3.11
2022-11-30T18:16:39.824Z,3.06
2022-11-30T18:19:14.820Z,3.08
2022-11-30T18:21:44.380Z,3.00
2022-11-30T18:24:14.048Z,2.95
2022-11-30T18:26:43.755Z,2.97
2022-11-30T18:29:13.105Z,3.07
2022-11-30T18:31:42.419Z,3.12
2022-11-30T18:34:12.343Z,3.08
2022-11-30T18:36:41.811Z,3.14
2022-11-30T18:39:11.312Z,3.07
2022-11-30T18:41:40.853Z,3.04
2022-11-30T18:44:11.377Z,3.00
2022-11-30T18:46:40.824Z,2.99
2022-11-30T18:49:10.180Z,2.99
2022-11-30T18:51:39.857Z,2.92
2022-11-30T18:54:10.828Z,2.90
2022-11-30T18:56:40.501Z,2.90
2022-11-30T18:59:12.896Z,2.93
2022-11-30T19:01:42.969Z,2.92
2022-11-30T19:04:12.467Z,2.99
2022-11-30T19:06:42.613Z,2.86
2022-11-30T19:09:14.293Z,2.81
2022-11-30T19:11:44.238Z,2.76
2022-11-30T19:14:15.496Z,2.81
2022-11-30T19:16:46.696Z,2.95
2022-11-30T19:19:16.143Z,3.01
2022-11-30T19:21:48.030Z,3.02
2022-11-30T19:24:18.013Z,3.05
2022-11-30T19:26:47.683Z,3.05
2022-11-30T19:29:17.046Z,3.09
2022-11-30T19:31:46.435Z,3.15
2022-11-30T19:34:15.652Z,3.18
2022-11-30T19:36:45.056Z,3.24
2022-11-30T19:39:14.576Z,3.22
2022-11-30T19:41:43.850Z,3.26
2022-11-30T19:44:15.121Z,3.14
2022-11-30T19:46:44.547Z,3.06
2022-11-30T19:49:14.072Z,2.91
2022-11-30T19:51:43.468Z,2.88
2022-11-30T19:54:13.019Z,2.88
2022-11-30T19:56:43.197Z,2.93
2022-11-30T19:59:12.563Z,3.02
2022-11-30T20:01:42.148Z,3.14
2022-11-30T20:04:11.571Z,3.27
2022-11-30T20:06:40.874Z,3.34
2022-11-30T20:09:12.103Z,3.39
2022-11-30T20:11:41.456Z,3.38
2022-11-30T20:14:14.091Z,3.37
2022-11-30T20:16:43.516Z,3.29
2022-11-30T20:19:13.017Z,3.25
2022-11-30T20:21:42.715Z,3.16
2022-11-30T20:24:12.890Z,3.08
2022-11-30T20:26:43.932Z,3.06
2022-11-30T20:29:15.450Z,3.10
2022-11-30T20:31:46.807Z,3.09
2022-11-30T20:34:16.717Z,3.08
2022-11-30T20:36:45.983Z,3.12
2022-11-30T20:39:15.418Z,3.18
2022-11-30T20:41:44.682Z,3.29
2022-11-30T20:44:17.185Z,3.39
2022-11-30T20:46:45.878Z,3.48
2022-11-30T20:49:18.434Z,3.57
2022-11-30T20:51:48.200Z,3.59
2022-11-30T20:54:18.156Z,3.59
2022-11-30T20:56:51.167Z,3.66
2022-11-30T20:59:21.774Z,3.66
2022-11-30T21:01:51.159Z,3.69
2022-11-30T21:04:21.462Z,3.69
2022-11-30T21:06:50.684Z,3.66
2022-11-30T21:09:21.165Z,3.67
2022-11-30T21:11:50.603Z,3.62
2022-11-30T21:14:20.420Z,3.56
2022-11-30T21:16:49.741Z,3.52
2022-11-30T21:19:18.959Z,3.49
2022-11-30T21:21:48.191Z,3.45
2022-11-30T21:24:17.434Z,3.41
2022-11-30T21:26:46.676Z,3.41
2022-11-30T21:29:17.479Z,3.38
2022-11-30T21:31:46.776Z,3.28
2022-11-30T21:34:16.293Z,3.25
2022-11-30T21:36:45.584Z,3.26
2022-11-30T21:39:16.452Z,3.28
2022-11-30T21:41:45.958Z,3.22
2022-11-30T21:44:16.520Z,3.21
2022-11-30T21:46:47.031Z,3.22
2022-11-30T21:49:16.746Z,3.26
2022-11-30T21:51:46.050Z,3.22
2022-11-30T21:54:15.619Z,3.24
2022-11-30T21:56:45.922Z,3.20
2022-11-30T21:59:15.872Z,3.15
2022-11-30T22:01:46.171Z,3.19
2022-11-30T22:04:16.003Z,3.17
2022-11-30T22:06:45.634Z,3.25
2022-11-30T22:09:17.017Z,3.26
2022-11-30T22:11:46.891Z,3.26
2022-11-30T22:14:17.461Z,3.29
2022-11-30T22:16:47.180Z,3.35
2022-11-30T22:19:17.457Z,3.38
2022-11-30T22:21:50.201Z,3.41
2022-11-30T22:24:18.014Z,3.45
2022-11-30T22:26:49.447Z,3.48
2022-11-30T22:29:22.269Z,3.50
2022-11-30T22:31:53.251Z,3.51
2022-11-30T22:34:22.544Z,3.60
2022-11-30T22:36:52.271Z,3.66
2022-11-30T22:39:22.239Z,3.64
2022-11-30T22:41:55.485Z,3.67
2022-11-30T22:44:23.346Z,3.72
2022-11-30T22:46:52.896Z,3.75
2022-11-30T22:49:22.365Z,3.78
2022-11-30T22:51:51.848Z,3.81
2022-11-30T22:54:21.089Z,3.79
2022-11-30T22:56:50.551Z,3.76
2022-11-30T22:59:19.816Z,3.84
2022-11-30T23:01:51.373Z,3.87
2022-11-30T23:04:23.404Z,3.77
2022-11-30T23:06:52.908Z,3.81
2022-11-30T23:09:23.713Z,3.79
2022-11-30T23:11:52.994Z,3.67
2022-11-30T23:14:22.285Z,3.66
2022-11-30T23:16:51.489Z,3.65
2022-11-30T23:19:20.749Z,3.63
2022-11-30T23:21:50.281Z,3.58
2022-11-30T23:24:20.996Z,3.61
2022-11-30T23:26:50.908Z,3.62
2022-11-30T23:29:20.240Z,3.64
2022-11-30T23:31:49.794Z,3.67
2022-11-30T23:34:21.640Z,3.63
2022-11-30T23:36:51.263Z,3.67
2022-11-30T23:39:21.181Z,3.65
2022-11-30T23:41:51.091Z,3.56
2022-11-30T23:44:20.320Z,3.59
2022-11-30T23:46:51.466Z,3.63
2022-11-30T23:49:20.743Z,3.58
2022-11-30T23:51:50.111Z,3.53
2022-11-30T23:54:19.446Z,3.55
2022-11-30T23:56:48.712Z,3.54
2022-11-30T23:59:17.954Z,3.51
